Time;durP1;ratioP1;P1;durP2;ratioP2;P2;SDS_P1;SDS_P2;PMS_P1;PMS_P2;Temp;Humidity;BMP_temperature;BMP_pressure;BME280_temperature;BME280_humidity;BME280_pressure;Samples;Min_cycle;Max_cycle;Signal;HPM_P1;HPM_P2
2023/06/08 00:02:04;;;;;;;5.97;2.80;;;;;;;;;;5036530;28;20032;-79
2023/06/08 00:04:33;;;;;;;7.28;2.97;;;;;;;;;;5036348;28;20124;-78
2023/06/08 00:07:03;;;;;;;5.75;3.00;;;;;;;;;;5036322;28;20028;-78
2023/06/08 00:09:29;;;;;;;5.13;2.63;;;;;;;;;;5020003;28;20040;-78
2023/06/08 00:11:55;;;;;;;5.10;2.53;;;;;;;;;;5035938;28;20025;-78
2023/06/08 00:14:21;;;;;;;4.47;2.53;;;;;;;;;;5019703;28;20044;-78
2023/06/08 00:16:50;;;;;;;4.22;2.50;;;;;;;;;;5019893;28;20037;-78
2023/06/08 00:19:15;;;;;;;5.25;2.95;;;;;;;;;;5020002;28;20395;-78
2023/06/08 00:21:42;;;;;;;6.43;3.08;;;;;;;;;;5036042;28;20025;-78
2023/06/08 00:24:11;;;;;;;6.15;2.40;;;;;;;;;;5020325;28;20029;-77
2023/06/08 00:26:36;;;;;;;3.67;2.50;;;;;;;;;;5053762;28;20028;-78
2023/06/08 00:29:02;;;;;;;4.93;2.30;;;;;;;;;;5036312;28;20524;-78
2023/06/08 00:31:28;;;;;;;5.32;2.50;;;;;;;;;;5053442;28;20090;-78
2023/06/08 00:33:53;;;;;;;4.28;2.47;;;;;;;;;;5035976;28;20392;-78
2023/06/08 00:36:19;;;;;;;5.43;2.35;;;;;;;;;;5053977;28;20032;-78
2023/06/08 00:38:44;;;;;;;5.18;2.50;;;;;;;;;;5035596;28;20033;-78
2023/06/08 00:41:10;;;;;;;2.83;2.35;;;;;;;;;;5053676;28;20468;-78
2023/06/08 00:43:35;;;;;;;5.70;2.65;;;;;;;;;;5053425;28;20064;-78
2023/06/08 00:46:02;;;;;;;3.83;2.58;;;;;;;;;;5053841;28;20029;-78
2023/06/08 00:48:28;;;;;;;3.75;2.22;;;;;;;;;;5019171;28;20459;-78
2023/06/08 00:50:56;;;;;;;4.57;2.40;;;;;;;;;;5036501;28;20112;-78
2023/06/08 00:53:21;;;;;;;4.85;2.60;;;;;;;;;;5018964;28;20020;-78
2023/06/08 00:55:50;;;;;;;5.15;2.40;;;;;;;;;;5035502;28;20044;-78
2023/06/08 00:58:16;;;;;;;3.17;2.35;;;;;;;;;;5036350;28;20524;-78
2023/06/08 01:00:46;;;;;;;3.97;2.30;;;;;;;;;;5035662;28;20032;-79
2023/06/08 01:03:14;;;;;;;4.65;2.47;;;;;;;;;;5036234;28;20029;-78
2023/06/08 01:05:44;;;;;;;5.47;3.25;;;;;;;;;;5019061;28;20049;-78
2023/06/08 01:08:19;;;;;;;5.85;2.30;;;;;;;;;;5053478;28;20036;-78
2023/06/08 01:10:44;;;;;;;4.35;2.40;;;;;;;;;;5035478;28;20027;-79
2023/06/08 01:13:28;;;;;;;4.80;2.38;;;;;;;;;;5035432;28;20036;-79
2023/06/08 01:15:56;;;;;;;;;;;;;;;;;;5035891;28;20087;-78
2023/06/08 01:18:23;;;;;;;3.55;2.20;;;;;;;;;;5052286;28;19919;-78
2023/06/08 01:21:08;;;;;;;4.20;2.38;;;;;;;;;;5035827;28;20036;-78
2023/06/08 01:24:13;;;;;;;2.60;2.20;;;;;;;;;;5036374;28;20033;-78
2023/06/08 01:26:43;;;;;;;3.55;2.47;;;;;;;;;;5023614;28;20484;-79
2023/06/08 01:29:10;;;;;;;4.30;2.42;;;;;;;;;;5022689;28;20025;-78
2023/06/08 01:31:36;;;;;;;4.30;2.30;;;;;;;;;;5057227;28;20032;-80
2023/06/08 01:34:05;;;;;;;6.40;2.47;;;;;;;;;;5039611;28;20379;-79
2023/06/08 01:36:44;;;;;;;6.00;2.78;;;;;;;;;;5022547;28;20071;-78
2023/06/08 01:39:23;;;;;;;4.50;2.50;;;;;;;;;;5022491;28;20059;-79
2023/06/08 01:41:51;;;;;;;4.70;2.33;;;;;;;;;;5039003;28;20472;-78
2023/06/08 01:44:19;;;;;;;3.13;2.03;;;;;;;;;;5038975;28;20033;-78
2023/06/08 01:46:54;;;;;;;4.28;2.40;;;;;;;;;;5038846;28;20392;-78
2023/06/08 01:49:20;;;;;;;4.13;2.30;;;;;;;;;;5038923;28;20071;-78
2023/06/08 01:51:46;;;;;;;4.82;2.30;;;;;;;;;;5038801;28;20480;-78
2023/06/08 01:54:12;;;;;;;3.78;2.20;;;;;;;;;;5038840;28;20102;-78
2023/06/08 01:56:38;;;;;;;3.55;2.33;;;;;;;;;;5038651;28;20036;-78
2023/06/08 01:59:03;;;;;;;4.35;2.28;;;;;;;;;;5038658;28;20025;-78
2023/06/08 02:01:29;;;;;;;11.48;2.45;;;;;;;;;;5038603;28;20035;-79
2023/06/08 02:03:54;;;;;;;4.88;2.15;;;;;;;;;;5021848;28;20060;-78
2023/06/08 02:06:20;;;;;;;3.63;2.00;;;;;;;;;;5021854;28;20550;-78
2023/06/08 02:08:45;;;;;;;3.75;2.13;;;;;;;;;;5038711;28;20431;-78
2023/06/08 02:11:10;;;;;;;2.65;2.00;;;;;;;;;;5038497;28;20017;-78
2023/06/08 02:13:43;;;;;;;5.72;2.30;;;;;;;;;;5038653;28;20391;-78
2023/06/08 02:16:09;;;;;;;4.18;2.30;;;;;;;;;;5022010;28;20068;-78
2023/06/08 02:18:40;;;;;;;3.95;2.33;;;;;;;;;;5038767;28;20032;-78
2023/06/08 02:21:08;;;;;;;3.10;2.17;;;;;;;;;;5006735;28;20059;-78
2023/06/08 02:23:34;;;;;;;3.63;2.28;;;;;;;;;;5005924;28;20020;-77
2023/06/08 02:26:00;;;;;;;5.43;2.50;;;;;;;;;;5038166;28;20040;-79
2023/06/08 02:28:25;;;;;;;5.53;2.47;;;;;;;;;;5038062;28;20436;-79
2023/06/08 02:30:50;;;;;;;3.60;2.25;;;;;;;;;;5038344;28;20033;-79
2023/06/08 02:33:16;;;;;;;5.03;2.60;;;;;;;;;;5055713;28;20480;-78
2023/06/08 02:35:41;;;;;;;3.72;2.33;;;;;;;;;;5020802;28;20438;-79
2023/06/08 02:38:07;;;;;;;4.47;2.40;;;;;;;;;;5037969;28;20028;-78
2023/06/08 02:40:32;;;;;;;5.43;2.63;;;;;;;;;;5037879;28;20037;-79
2023/06/08 02:42:58;;;;;;;4.15;2.10;;;;;;;;;;5038159;28;20060;-79
2023/06/08 02:45:23;;;;;;;4.28;2.30;;;;;;;;;;5055782;28;20032;-79
2023/06/08 02:47:49;;;;;;;3.60;2.40;;;;;;;;;;5037816;28;20483;-79
2023/06/08 02:50:15;;;;;;;5.35;2.40;;;;;;;;;;5055789;28;20498;-79
2023/06/08 02:52:40;;;;;;;4.13;2.33;;;;;;;;;;5037626;28;20029;-78
2023/06/08 02:55:06;;;;;;;3.47;2.30;;;;;;;;;;5055312;28;20060;-78
2023/06/08 02:57:32;;;;;;;3.13;2.17;;;;;;;;;;5020861;28;20036;-78
2023/06/08 02:59:58;;;;;;;4.47;2.38;;;;;;;;;;5037305;28;20029;-78
2023/06/08 03:02:23;;;;;;;3.75;1.98;;;;;;;;;;5020995;28;20472;-78
2023/06/08 03:04:52;;;;;;;3.70;2.20;;;;;;;;;;5055017;28;20466;-78
2023/06/08 03:07:18;;;;;;;4.90;2.30;;;;;;;;;;5037640;28;20024;-79
2023/06/08 03:09:43;;;;;;;4.53;2.40;;;;;;;;;;5037268;28;20125;-79
2023/06/08 03:12:12;;;;;;;3.63;2.33;;;;;;;;;;5020738;28;20395;-78
2023/06/08 03:14:41;;;;;;;2.70;2.00;;;;;;;;;;5037614;28;20102;-78
2023/06/08 03:17:07;;;;;;;3.60;2.17;;;;;;;;;;5020899;28;20079;-78
2023/06/08 03:19:32;;;;;;;2.45;1.90;;;;;;;;;;5020436;28;20036;-78
2023/06/08 03:22:04;;;;;;;3.28;2.20;;;;;;;;;;5037294;28;20403;-79
2023/06/08 03:24:31;;;;;;;4.22;2.20;;;;;;;;;;5055279;28;20029;-78
2023/06/08 03:26:58;;;;;;;4.55;2.22;;;;;;;;;;5054533;28;20107;-79
2023/06/08 03:29:24;;;;;;;3.40;2.20;;;;;;;;;;5037020;28;20078;-78
2023/06/08 03:31:50;;;;;;;4.63;2.20;;;;;;;;;;5036524;28;20025;-78
2023/06/08 03:34:16;;;;;;;3.42;2.20;;;;;;;;;;5036956;28;20040;-79
2023/06/08 03:36:43;;;;;;;3.15;2.03;;;;;;;;;;5020156;28;20048;-79
2023/06/08 03:39:08;;;;;;;3.30;2.28;;;;;;;;;;5020208;28;20590;-78
2023/06/08 03:41:34;;;;;;;2.83;2.15;;;;;;;;;;5036918;28;20029;-79
2023/06/08 03:43:59;;;;;;;3.03;1.92;;;;;;;;;;5036554;28;20532;-78
2023/06/08 03:46:25;;;;;;;2.88;2.22;;;;;;;;;;5019892;28;20364;-78
2023/06/08 03:48:50;;;;;;;3.63;2.25;;;;;;;;;;5036265;28;20077;-78
2023/06/08 03:51:18;;;;;;;3.10;2.35;;;;;;;;;;5020120;28;20118;-78
2023/06/08 03:53:43;;;;;;;3.50;2.30;;;;;;;;;;5036393;28;20029;-78
2023/06/08 03:56:09;;;;;;;5.03;2.45;;;;;;;;;;5054515;28;20044;-78
2023/06/08 03:58:34;;;;;;;2.83;2.17;;;;;;;;;;5020212;28;20102;-79
2023/06/08 04:00:59;;;;;;;2.38;1.95;;;;;;;;;;5036472;28;20109;-78
2023/06/08 04:03:26;;;;;;;3.53;2.40;;;;;;;;;;5036544;28;20037;-79
2023/06/08 04:05:52;;;;;;;4.75;2.33;;;;;;;;;;5036376;28;20134;-78
2023/06/08 04:08:17;;;;;;;4.80;2.55;;;;;;;;;;5036805;28;20037;-78
2023/06/08 04:10:44;;;;;;;4.15;2.45;;;;;;;;;;5036564;28;20051;-77
2023/06/08 04:13:09;;;;;;;4.13;2.53;;;;;;;;;;5036615;28;20124;-78
2023/06/08 04:15:35;;;;;;;5.45;2.90;;;;;;;;;;5036778;28;20360;-78
2023/06/08 04:18:02;;;;;;;6.40;2.95;;;;;;;;;;5036245;28;20079;-77
2023/06/08 04:20:27;;;;;;;6.97;3.20;;;;;;;;;;5019806;28;20021;-78
2023/06/08 04:22:53;;;;;;;7.40;3.85;;;;;;;;;;5019508;28;20035;-77
2023/06/08 04:25:19;;;;;;;7.95;3.30;;;;;;;;;;5054071;28;20387;-78
2023/06/08 04:27:46;;;;;;;11.15;3.92;;;;;;;;;;5053991;28;20029;-78
2023/06/08 04:30:11;;;;;;;13.27;5.15;;;;;;;;;;5053575;28;20036;-78
2023/06/08 04:32:37;;;;;;;8.02;4.68;;;;;;;;;;5053646;28;20029;-78
2023/06/08 04:35:03;;;;;;;9.88;4.30;;;;;;;;;;5047218;28;20395;-77
2023/06/08 04:37:29;;;;;;;11.52;3.90;;;;;;;;;;5056189;28;20024;-78
2023/06/08 04:39:56;;;;;;;10.07;3.50;;;;;;;;;;5056468;28;20028;-78
2023/06/08 04:42:23;;;;;;;7.88;3.33;;;;;;;;;;5056279;28;20026;-78
2023/06/08 04:44:50;;;;;;;8.18;3.05;;;;;;;;;;5073674;28;20063;-78
2023/06/08 04:47:17;;;;;;;5.78;3.05;;;;;;;;;;5056017;28;20024;-79
2023/06/08 04:49:42;;;;;;;6.25;3.10;;;;;;;;;;5073804;28;20111;-79
2023/06/08 04:52:09;;;;;;;7.15;3.05;;;;;;;;;;5055242;28;20107;-81
2023/06/08 04:54:36;;;;;;;10.68;3.33;;;;;;;;;;5055865;28;20029;-78
2023/06/08 04:57:03;;;;;;;10.23;3.53;;;;;;;;;;5073680;28;20032;-78
2023/06/08 04:59:29;;;;;;;16.60;5.93;;;;;;;;;;5073542;28;20024;-78
2023/06/08 05:01:55;;;;;;;24.80;7.18;;;;;;;;;;5035204;28;20048;-79
2023/06/08 05:04:21;;;;;;;22.42;7.82;;;;;;;;;;5053550;28;20392;-79
2023/06/08 05:06:47;;;;;;;28.75;8.95;;;;;;;;;;5035206;28;20033;-79
2023/06/08 05:09:12;;;;;;;29.65;9.02;;;;;;;;;;5051795;28;20116;-79
2023/06/08 05:11:39;;;;;;;30.27;9.52;;;;;;;;;;5018640;28;20158;-80
2023/06/08 05:14:04;;;;;;;29.67;9.63;;;;;;;;;;5035365;28;20070;-79
2023/06/08 05:16:30;;;;;;;34.58;8.38;;;;;;;;;;5035111;28;20025;-81
2023/06/08 05:18:55;;;;;;;28.20;9.55;;;;;;;;;;5051679;28;20069;-80
2023/06/08 05:21:20;;;;;;;33.70;9.10;;;;;;;;;;5052822;28;20469;-80
2023/06/08 05:23:47;;;;;;;26.40;9.05;;;;;;;;;;5036066;28;20033;-79
2023/06/08 05:26:13;;;;;;;26.33;8.93;;;;;;;;;;5019745;28;20115;-80
2023/06/08 05:28:38;;;;;;;20.48;8.48;;;;;;;;;;5036552;28;20510;-80
2023/06/08 05:31:03;;;;;;;20.92;7.22;;;;;;;;;;5036376;28;20025;-80
2023/06/08 05:33:29;;;;;;;18.90;7.30;;;;;;;;;;5053240;28;20412;-79
2023/06/08 05:35:54;;;;;;;17.60;6.20;;;;;;;;;;5053518;28;20107;-79
2023/06/08 05:38:20;;;;;;;18.45;6.47;;;;;;;;;;5035712;28;20036;-80
2023/06/08 05:40:45;;;;;;;16.20;6.53;;;;;;;;;;5035493;28;20436;-80
2023/06/08 05:43:11;;;;;;;17.27;5.47;;;;;;;;;;5053090;28;20040;-79
2023/06/08 05:45:36;;;;;;;12.77;4.90;;;;;;;;;;5036501;28;20094;-79
2023/06/08 05:48:02;;;;;;;10.57;4.70;;;;;;;;;;5035193;28;20074;-80
2023/06/08 05:50:27;;;;;;;11.30;4.75;;;;;;;;;;5018805;28;20123;-80
2023/06/08 05:52:52;;;;;;;10.05;4.63;;;;;;;;;;5034783;28;20451;-79
2023/06/08 05:55:18;;;;;;;9.65;4.18;;;;;;;;;;5018293;28;20029;-79
2023/06/08 05:57:43;;;;;;;8.27;4.22;;;;;;;;;;5018465;28;20062;-79
2023/06/08 06:00:10;;;;;;;8.63;3.55;;;;;;;;;;5052612;28;20120;-79
2023/06/08 06:02:36;;;;;;;8.18;3.70;;;;;;;;;;5035866;28;20060;-79
2023/06/08 06:05:01;;;;;;;11.25;3.80;;;;;;;;;;5015218;28;20057;-79
2023/06/08 06:07:26;;;;;;;7.63;3.70;;;;;;;;;;5032585;28;20526;-80
2023/06/08 06:09:52;;;;;;;7.10;3.50;;;;;;;;;;5035227;28;20029;-78
2023/06/08 06:12:17;;;;;;;5.55;3.08;;;;;;;;;;5036250;28;20381;-79
2023/06/08 06:14:43;;;;;;;7.45;2.83;;;;;;;;;;5002730;28;20037;-78
2023/06/08 06:17:09;;;;;;;10.93;3.80;;;;;;;;;;5037359;28;20112;-78
2023/06/08 06:19:37;;;;;;;8.43;2.72;;;;;;;;;;5035217;28;20044;-78
2023/06/08 06:22:08;;;;;;;7.22;3.05;;;;;;;;;;5035545;28;20022;-79
2023/06/08 06:24:33;;;;;;;4.82;2.70;;;;;;;;;;5036226;28;20092;-78
2023/06/08 06:26:58;;;;;;;7.80;3.10;;;;;;;;;;5018541;28;20072;-78
2023/06/08 06:29:24;;;;;;;5.78;2.75;;;;;;;;;;5036474;28;20025;-78
2023/06/08 06:31:50;;;;;;;4.55;2.78;;;;;;;;;;5035258;28;20029;-78
2023/06/08 06:34:15;;;;;;;7.40;2.70;;;;;;;;;;5018386;28;20120;-79
2023/06/08 06:36:41;;;;;;;5.05;2.63;;;;;;;;;;5051776;28;20041;-79
2023/06/08 06:39:06;;;;;;;5.70;2.25;;;;;;;;;;5002049;28;20427;-79
2023/06/08 06:41:31;;;;;;;7.20;3.05;;;;;;;;;;5034958;28;20031;-79
2023/06/08 06:43:57;;;;;;;5.95;2.70;;;;;;;;;;5034723;28;20040;-79
2023/06/08 06:46:22;;;;;;;6.15;3.03;;;;;;;;;;5035085;28;20037;-76
2023/06/08 06:48:48;;;;;;;10.25;2.58;;;;;;;;;;5035414;28;20033;-77
2023/06/08 06:51:13;;;;;;;9.50;2.85;;;;;;;;;;5036065;28;20441;-77
2023/06/08 06:53:39;;;;;;;7.10;2.50;;;;;;;;;;5037018;28;20046;-77
2023/06/08 06:56:05;;;;;;;5.30;3.03;;;;;;;;;;5036394;28;20481;-78
2023/06/08 06:58:31;;;;;;;10.75;2.92;;;;;;;;;;5035865;28;20040;-78
2023/06/08 07:00:57;;;;;;;7.18;2.90;;;;;;;;;;5035566;28;20464;-78
2023/06/08 07:03:26;;;;;;;7.75;3.03;;;;;;;;;;5036575;28;20075;-78
2023/06/08 07:05:59;;;;;;;5.80;2.97;;;;;;;;;;5052010;28;20064;-80
2023/06/08 07:08:28;;;;;;;5.97;2.97;;;;;;;;;;5038618;28;20021;-79
2023/06/08 07:10:53;;;;;;;5.18;2.45;;;;;;;;;;5038083;28;20037;-81
2023/06/08 07:13:19;;;;;;;6.38;2.72;;;;;;;;;;5055244;28;20044;-80
2023/06/08 07:15:44;;;;;;;15.48;3.60;;;;;;;;;;5021077;28;20121;-81
2023/06/08 07:18:10;;;;;;;7.47;2.50;;;;;;;;;;5055370;28;20033;-80
2023/06/08 07:20:35;;;;;;;4.97;2.63;;;;;;;;;;5021622;28;20033;-79
2023/06/08 07:23:01;;;;;;;4.88;2.80;;;;;;;;;;5054019;28;20092;-79
2023/06/08 07:25:26;;;;;;;10.15;2.35;;;;;;;;;;5037132;28;20032;-80
2023/06/08 07:27:51;;;;;;;7.55;2.72;;;;;;;;;;5037649;28;20036;-79
2023/06/08 07:30:17;;;;;;;7.22;2.75;;;;;;;;;;5055486;28;20432;-79
2023/06/08 07:32:45;;;;;;;8.75;2.63;;;;;;;;;;5020682;28;20024;-79
2023/06/08 07:35:11;;;;;;;10.75;2.67;;;;;;;;;;5021007;28;20037;-80
2023/06/08 07:37:36;;;;;;;7.30;2.90;;;;;;;;;;5037457;28;20501;-79
2023/06/08 07:40:08;;;;;;;13.32;3.10;;;;;;;;;;5021012;28;20536;-79
2023/06/08 07:42:34;;;;;;;6.20;2.50;;;;;;;;;;5022212;28;20089;-79
2023/06/08 07:45:00;;;;;;;7.03;2.60;;;;;;;;;;5037206;28;20056;-79
2023/06/08 07:47:25;;;;;;;7.57;2.47;;;;;;;;;;5036859;28;20033;-79
2023/06/08 07:49:50;;;;;;;6.80;2.72;;;;;;;;;;5055192;28;20032;-79
2023/06/08 07:52:16;;;;;;;4.57;2.50;;;;;;;;;;5054969;28;20024;-80
2023/06/08 07:54:42;;;;;;;5.53;2.70;;;;;;;;;;5037385;28;20380;-79
2023/06/08 07:57:07;;;;;;;5.80;2.70;;;;;;;;;;5054582;28;20037;-79
2023/06/08 07:59:33;;;;;;;4.30;2.40;;;;;;;;;;5037240;28;20033;-79
2023/06/08 08:01:58;;;;;;;7.85;2.78;;;;;;;;;;5036360;28;20021;-79
2023/06/08 08:04:24;;;;;;;3.53;2.25;;;;;;;;;;5054203;28;20053;-80
2023/06/08 08:06:49;;;;;;;5.03;2.78;;;;;;;;;;5019848;28;20502;-79
2023/06/08 08:09:15;;;;;;;6.80;2.75;;;;;;;;;;5054148;28;20025;-79
2023/06/08 08:11:40;;;;;;;6.90;2.42;;;;;;;;;;5036803;28;20486;-79
2023/06/08 08:14:10;;;;;;;8.73;2.95;;;;;;;;;;5054073;28;20028;-80
2023/06/08 08:16:39;;;;;;;3.92;2.22;;;;;;;;;;5037116;28;20086;-80
2023/06/08 08:19:05;;;;;;;4.60;2.63;;;;;;;;;;5019580;28;20021;-80
2023/06/08 08:21:31;;;;;;;5.20;2.53;;;;;;;;;;5021264;28;20055;-79
2023/06/08 08:23:56;;;;;;;9.07;2.75;;;;;;;;;;5035840;28;20164;-80
2023/06/08 08:26:21;;;;;;;4.30;2.30;;;;;;;;;;5053734;28;20036;-80
2023/06/08 08:28:47;;;;;;;4.10;2.65;;;;;;;;;;5054128;28;20048;-79
2023/06/08 08:31:13;;;;;;;7.30;2.65;;;;;;;;;;5053564;28;20360;-79
2023/06/08 08:33:38;;;;;;;6.30;2.42;;;;;;;;;;5053087;28;20127;-79
2023/06/08 08:36:05;;;;;;;6.97;2.58;;;;;;;;;;5035646;28;20107;-79
2023/06/08 08:38:30;;;;;;;3.55;2.35;;;;;;;;;;5019346;28;20118;-79
2023/06/08 08:41:02;;;;;;;6.78;3.17;;;;;;;;;;5052470;28;20066;-79
2023/06/08 08:44:05;;;;;;;4.22;2.53;;;;;;;;;;5035744;28;20040;-79
2023/06/08 08:46:37;;;;;;;4.20;2.75;;;;;;;;;;4918768;29;20094;-80
2023/06/08 08:49:08;;;;;;;4.45;2.67;;;;;;;;;;4919209;29;20114;-80
2023/06/08 08:51:38;;;;;;;4.88;2.80;;;;;;;;;;4934181;29;20075;-79
2023/06/08 08:54:04;;;;;;;3.83;2.72;;;;;;;;;;4918958;29;20100;-79
2023/06/08 08:56:36;;;;;;;3.72;2.50;;;;;;;;;;4918398;29;20111;-80
2023/06/08 08:59:03;;;;;;;4.57;2.67;;;;;;;;;;4934491;29;20120;-79
2023/06/08 09:01:32;;;;;;;4.35;2.67;;;;;;;;;;4902383;29;20067;-79
2023/06/08 09:03:58;;;;;;;3.30;2.55;;;;;;;;;;4918414;29;20047;-80
2023/06/08 09:06:23;;;;;;;4.18;2.47;;;;;;;;;;4918270;29;20124;-80
2023/06/08 09:08:49;;;;;;;2.97;2.13;;;;;;;;;;4918393;29;20082;-79
2023/06/08 09:11:14;;;;;;;4.38;2.53;;;;;;;;;;4934143;29;20031;-79
2023/06/08 09:13:40;;;;;;;3.47;2.38;;;;;;;;;;4918646;29;20538;-79
2023/06/08 09:16:14;;;;;;;4.82;2.60;;;;;;;;;;4918489;29;20043;-79
2023/06/08 09:18:41;;;;;;;4.05;2.30;;;;;;;;;;4922378;29;20035;-79
2023/06/08 09:21:22;;;;;;;4.10;2.67;;;;;;;;;;4994155;28;20064;-79
2023/06/08 09:24:05;;;;;;;4.18;2.65;;;;;;;;;;5015975;28;20022;-79
2023/06/08 09:26:32;;;;;;;4.68;2.80;;;;;;;;;;5032156;28;20112;-79
2023/06/08 09:29:03;;;;;;;5.72;2.60;;;;;;;;;;5032329;28;20056;-79
2023/06/08 09:31:31;;;;;;;5.60;2.80;;;;;;;;;;5033091;28;20026;-79
2023/06/08 09:34:05;;;;;;;6.13;2.70;;;;;;;;;;5032193;28;20029;-80
2023/06/08 09:36:30;;;;;;;6.75;3.10;;;;;;;;;;5033495;28;20034;-79
2023/06/08 09:38:56;;;;;;;5.03;2.90;;;;;;;;;;5034871;28;20357;-79
2023/06/08 09:41:21;;;;;;;6.25;2.95;;;;;;;;;;5033156;28;20087;-79
2023/06/08 09:43:51;;;;;;;3.90;2.58;;;;;;;;;;5048762;28;20029;-79
2023/06/08 09:46:38;;;;;;;4.43;2.63;;;;;;;;;;5035305;28;20026;-79
2023/06/08 09:49:07;;;;;;;5.93;2.80;;;;;;;;;;5037711;28;20485;-79
2023/06/08 09:51:35;;;;;;;4.47;2.65;;;;;;;;;;5037528;28;20492;-79
2023/06/08 09:54:01;;;;;;;6.68;2.90;;;;;;;;;;5038660;28;20495;-79
2023/06/08 09:56:27;;;;;;;4.63;2.78;;;;;;;;;;5021420;28;20029;-78
2023/06/08 09:58:56;;;;;;;5.00;2.67;;;;;;;;;;5039042;28;20025;-79
2023/06/08 10:01:41;;;;;;;3.25;2.30;;;;;;;;;;5040853;28;20025;-79
2023/06/08 10:04:21;;;;;;;5.90;2.95;;;;;;;;;;5038709;28;20025;-80
2023/06/08 10:06:47;;;;;;;5.30;2.53;;;;;;;;;;5041249;28;20049;-79
2023/06/08 10:09:15;;;;;;;4.53;2.83;;;;;;;;;;5040494;28;20095;-79
2023/06/08 10:11:40;;;;;;;3.63;2.50;;;;;;;;;;5041024;28;20028;-79
2023/06/08 10:14:07;;;;;;;4.75;2.75;;;;;;;;;;5061855;28;20392;-79
2023/06/08 10:16:32;;;;;;;4.07;2.60;;;;;;;;;;5044767;28;20036;-80
2023/06/08 10:18:58;;;;;;;3.45;2.42;;;;;;;;;;5071436;28;20056;-79
2023/06/08 10:21:24;;;;;;;4.40;2.70;;;;;;;;;;5039327;28;20032;-79
2023/06/08 10:23:50;;;;;;;3.20;2.35;;;;;;;;;;5060044;28;20029;-80
2023/06/08 10:26:17;;;;;;;4.13;2.58;;;;;;;;;;5060486;28;20078;-79
2023/06/08 10:29:10;;;;;;;5.53;2.60;;;;;;;;;;5045570;28;20506;-78
2023/06/08 10:31:39;;;;;;;9.33;2.60;;;;;;;;;;5053715;28;20037;-78
2023/06/08 10:34:09;;;;;;;4.63;2.30;;;;;;;;;;5080249;28;20298;-78
2023/06/08 10:36:42;;;;;;;5.63;2.47;;;;;;;;;;5062039;28;20060;-77
2023/06/08 10:39:10;;;;;;;5.93;2.53;;;;;;;;;;5048068;28;20036;-78
2023/06/08 10:41:52;;;;;;;3.60;2.47;;;;;;;;;;5041728;28;20328;-78
2023/06/08 10:44:29;;;;;;;4.95;2.58;;;;;;;;;;5045037;28;20529;-78
2023/06/08 10:46:59;;;;;;;3.70;2.28;;;;;;;;;;5047454;28;20033;-79
2023/06/08 10:49:28;;;;;;;3.20;2.05;;;;;;;;;;5042089;28;20123;-79
2023/06/08 10:51:57;;;;;;;6.63;2.40;;;;;;;;;;5038558;28;20048;-78
2023/06/08 10:54:24;;;;;;;4.20;2.35;;;;;;;;;;5022098;28;20028;-78
2023/06/08 10:56:52;;;;;;;6.45;2.80;;;;;;;;;;5038280;28;20025;-78
2023/06/08 10:59:38;;;;;;;4.93;2.95;;;;;;;;;;5038051;28;20110;-78
2023/06/08 11:02:05;;;;;;;7.93;2.90;;;;;;;;;;5038559;28;20464;-77
2023/06/08 11:04:31;;;;;;;16.38;4.90;;;;;;;;;;5022579;28;20033;-78
2023/06/08 11:07:03;;;;;;;19.83;5.15;;;;;;;;;;5038647;28;20500;-80
2023/06/08 11:09:33;;;;;;;11.30;3.67;;;;;;;;;;5039301;28;20025;-77
2023/06/08 11:12:00;;;;;;;8.20;3.70;;;;;;;;;;5023007;28;20028;-78
2023/06/08 11:14:26;;;;;;;8.73;3.75;;;;;;;;;;5037871;28;20029;-79
2023/06/08 11:16:53;;;;;;;7.28;3.78;;;;;;;;;;5054042;28;20498;-79
2023/06/08 11:19:19;;;;;;;12.20;3.70;;;;;;;;;;5037656;28;20029;-79
2023/06/08 11:21:50;;;;;;;8.13;3.72;;;;;;;;;;5055118;28;20094;-79
2023/06/08 11:24:19;;;;;;;8.52;3.88;;;;;;;;;;5037455;28;20336;-80
2023/06/08 11:26:45;;;;;;;11.48;3.60;;;;;;;;;;5037331;28;20029;-79
2023/06/08 11:29:12;;;;;;;8.25;3.13;;;;;;;;;;5038013;28;20503;-79
2023/06/08 11:31:41;;;;;;;8.57;3.80;;;;;;;;;;5023064;28;20036;-79
2023/06/08 11:34:12;;;;;;;6.95;3.13;;;;;;;;;;5042875;28;20060;-79
2023/06/08 11:36:38;;;;;;;13.05;3.08;;;;;;;;;;5060218;28;20029;-79
2023/06/08 11:39:06;;;;;;;7.63;3.28;;;;;;;;;;5041124;28;20029;-78
2023/06/08 11:41:31;;;;;;;6.60;3.38;;;;;;;;;;5040475;28;20029;-79
2023/06/08 11:43:57;;;;;;;7.50;3.13;;;;;;;;;;5044401;28;20038;-79
2023/06/08 11:46:23;;;;;;;6.60;3.00;;;;;;;;;;5060467;28;20028;-79
2023/06/08 11:48:48;;;;;;;7.78;3.45;;;;;;;;;;5054192;28;20116;-79
2023/06/08 11:51:17;;;;;;;7.55;2.92;;;;;;;;;;5021289;28;20055;-79
2023/06/08 11:53:45;;;;;;;4.90;2.70;;;;;;;;;;5038190;28;20098;-79
2023/06/08 11:56:10;;;;;;;6.57;2.90;;;;;;;;;;5056206;28;20021;-79
2023/06/08 11:58:37;;;;;;;5.65;2.83;;;;;;;;;;5055678;28;20482;-79
2023/06/08 12:01:07;;;;;;;5.72;3.00;;;;;;;;;;5037562;28;20029;-79
2023/06/08 12:03:44;;;;;;;4.47;2.75;;;;;;;;;;5036659;28;20032;-79
2023/06/08 12:06:10;;;;;;;4.32;3.00;;;;;;;;;;5016647;28;20049;-79
2023/06/08 12:08:36;;;;;;;5.97;3.00;;;;;;;;;;5032213;28;20396;-79
2023/06/08 12:11:09;;;;;;;5.00;2.67;;;;;;;;;;5017040;28;20197;-79
2023/06/08 12:13:34;;;;;;;4.85;3.22;;;;;;;;;;5033425;28;20022;-79
2023/06/08 12:16:00;;;;;;;8.93;2.88;;;;;;;;;;5034475;28;20447;-79
2023/06/08 12:18:25;;;;;;;4.00;2.60;;;;;;;;;;5033463;28;20033;-79
2023/06/08 12:20:52;;;;;;;3.40;2.70;;;;;;;;;;5034015;28;20033;-79
2023/06/08 12:23:17;;;;;;;5.07;2.85;;;;;;;;;;5034245;28;20033;-79
2023/06/08 12:25:43;;;;;;;3.53;2.50;;;;;;;;;;5016706;28;20025;-79
2023/06/08 12:28:20;;;;;;;4.82;2.50;;;;;;;;;;5033543;28;20083;-79
2023/06/08 12:30:46;;;;;;;5.50;3.20;;;;;;;;;;5016344;28;20021;-79
2023/06/08 12:33:17;;;;;;;4.05;2.63;;;;;;;;;;5032620;28;20037;-79
2023/06/08 12:35:42;;;;;;;6.88;2.70;;;;;;;;;;5032768;28;20044;-79
2023/06/08 12:38:08;;;;;;;3.70;2.47;;;;;;;;;;5032951;28;20033;-78
2023/06/08 12:40:33;;;;;;;3.72;2.50;;;;;;;;;;5032732;28;20029;-79
2023/06/08 12:42:58;;;;;;;4.10;2.80;;;;;;;;;;5032494;28;20037;-79
2023/06/08 12:45:24;;;;;;;5.88;2.67;;;;;;;;;;5034041;28;20064;-79
2023/06/08 12:47:49;;;;;;;4.00;2.53;;;;;;;;;;5032364;28;20120;-79
2023/06/08 12:50:28;;;;;;;4.20;2.85;;;;;;;;;;5032532;28;20476;-78
2023/06/08 12:52:54;;;;;;;5.53;2.47;;;;;;;;;;5032674;28;20029;-79
2023/06/08 12:55:19;;;;;;;2.50;2.30;;;;;;;;;;5032483;28;20448;-79
2023/06/08 12:57:45;;;;;;;5.45;2.63;;;;;;;;;;5032365;28;20029;-79
2023/06/08 13:00:14;;;;;;;2.83;2.38;;;;;;;;;;5048752;28;20030;-79
2023/06/08 13:02:40;;;;;;;3.15;2.40;;;;;;;;;;5033642;28;20032;-78
2023/06/08 13:05:08;;;;;;;3.50;2.47;;;;;;;;;;5035448;28;20450;-79
2023/06/08 13:07:35;;;;;;;3.72;2.38;;;;;;;;;;5039401;28;20464;-79
2023/06/08 13:10:01;;;;;;;4.60;2.60;;;;;;;;;;5057119;28;20087;-79
2023/06/08 13:12:28;;;;;;;3.50;2.45;;;;;;;;;;5021976;28;20025;-78
2023/06/08 13:14:54;;;;;;;4.50;2.58;;;;;;;;;;5052459;28;20454;-79
2023/06/08 13:17:20;;;;;;;4.72;2.75;;;;;;;;;;5035780;28;20021;-79
2023/06/08 13:19:46;;;;;;;3.50;2.50;;;;;;;;;;5036643;28;20391;-78
2023/06/08 13:22:12;;;;;;;4.90;3.00;;;;;;;;;;5039656;28;20020;-79
2023/06/08 13:24:41;;;;;;;3.00;2.30;;;;;;;;;;5039866;28;20148;-79
2023/06/08 13:27:07;;;;;;;4.80;2.65;;;;;;;;;;5039644;28;20040;-78
2023/06/08 13:29:33;;;;;;;3.05;2.33;;;;;;;;;;5039796;28;20464;-78
2023/06/08 13:31:58;;;;;;;3.22;2.38;;;;;;;;;;5055873;28;20036;-78
2023/06/08 13:34:24;;;;;;;4.00;2.38;;;;;;;;;;5024661;28;20036;-79
2023/06/08 13:36:50;;;;;;;4.47;2.72;;;;;;;;;;5056302;28;20033;-78
2023/06/08 13:39:16;;;;;;;3.75;2.58;;;;;;;;;;5039821;28;20049;-78
2023/06/08 13:41:42;;;;;;;2.50;2.15;;;;;;;;;;5023285;28;20021;-79
2023/06/08 13:44:08;;;;;;;3.15;2.28;;;;;;;;;;5039424;28;20037;-78
2023/06/08 13:46:34;;;;;;;4.15;2.42;;;;;;;;;;5023363;28;20040;-78
2023/06/08 13:49:01;;;;;;;3.72;2.58;;;;;;;;;;5039440;28;20051;-78
2023/06/08 13:51:27;;;;;;;3.55;2.47;;;;;;;;;;5057203;28;20071;-78
2023/06/08 13:53:55;;;;;;;4.65;2.33;;;;;;;;;;5039548;28;20052;-77
2023/06/08 13:56:21;;;;;;;5.07;2.45;;;;;;;;;;5039772;28;20033;-78
2023/06/08 13:58:58;;;;;;;3.55;2.65;;;;;;;;;;5039837;28;20029;-78
2023/06/08 14:01:23;;;;;;;2.95;2.50;;;;;;;;;;5022728;28;20021;-78
2023/06/08 14:03:49;;;;;;;3.42;2.20;;;;;;;;;;5022692;28;20051;-78
2023/06/08 14:06:14;;;;;;;4.38;2.50;;;;;;;;;;5057678;28;20136;-77
2023/06/08 14:08:40;;;;;;;4.43;2.20;;;;;;;;;;5040327;28;20452;-78
2023/06/08 14:11:06;;;;;;;3.28;2.30;;;;;;;;;;5057834;28;20434;-77
2023/06/08 14:13:32;;;;;;;3.58;2.38;;;;;;;;;;5057606;28;20111;-77
2023/06/08 14:15:57;;;;;;;3.33;2.22;;;;;;;;;;5023598;28;20052;-78
2023/06/08 14:18:23;;;;;;;4.88;2.50;;;;;;;;;;5057189;28;20504;-77
2023/06/08 14:20:48;;;;;;;3.10;2.28;;;;;;;;;;5022688;28;20407;-77
2023/06/08 14:23:15;;;;;;;4.45;2.45;;;;;;;;;;5023355;28;20496;-78
2023/06/08 14:25:40;;;;;;;3.63;2.60;;;;;;;;;;5023743;28;20029;-78
2023/06/08 14:28:06;;;;;;;3.40;2.03;;;;;;;;;;5040247;28;20527;-79
2023/06/08 14:30:31;;;;;;;2.35;1.92;;;;;;;;;;5024005;28;20582;-78
2023/06/08 14:32:58;;;;;;;3.28;2.20;;;;;;;;;;5056217;28;20033;-77
2023/06/08 14:35:25;;;;;;;4.88;2.60;;;;;;;;;;5055652;28;20395;-78
2023/06/08 14:37:50;;;;;;;4.47;2.10;;;;;;;;;;5039282;28;20032;-78
2023/06/08 14:40:15;;;;;;;4.43;2.20;;;;;;;;;;5038703;28;20036;-78
2023/06/08 14:42:42;;;;;;;3.25;2.33;;;;;;;;;;5021743;28;20139;-77